sensor_id;sensor_type;location;lat;lon;timestamp;temperature;humidity
52181;DHT22;38158;53.338;6.514;2022-11-25T00:00:47;7.30;99.90
52181;DHT22;38158;53.338;6.514;2022-11-25T00:03:12;7.30;99.90
52181;DHT22;38158;53.338;6.514;2022-11-25T00:05:38;7.30;99.90
52181;DHT22;38158;53.338;6.514;2022-11-25T00:08:04;7.30;99.90
52181;DHT22;38158;53.338;6.514;2022-11-25T00:10:29;7.30;99.90
52181;DHT22;38158;53.338;6.514;2022-11-25T00:12:55;7.80;99.90
52181;DHT22;38158;53.338;6.514;2022-11-25T00:15:21;7.20;99.90
52181;DHT22;38158;53.338;6.514;2022-11-25T00:17:46;7.20;99.90
52181;DHT22;38158;53.338;6.514;2022-11-25T00:20:12;7.20;99.90
52181;DHT22;38158;53.338;6.514;2022-11-25T00:22:38;7.20;99.90
52181;DHT22;38158;53.338;6.514;2022-11-25T00:25:04;7.20;99.90
52181;DHT22;38158;53.338;6.514;2022-11-25T00:27:29;7.20;99.90
52181;DHT22;38158;53.338;6.514;2022-11-25T00:29:55;7.20;99.90
52181;DHT22;38158;53.338;6.514;2022-11-25T00:32:21;7.40;99.90
52181;DHT22;38158;53.338;6.514;2022-11-25T00:34:46;7.20;99.90
52181;DHT22;38158;53.338;6.514;2022-11-25T00:37:12;7.20;99.90
52181;DHT22;38158;53.338;6.514;2022-11-25T00:39:38;7.20;99.90
52181;DHT22;38158;53.338;6.514;2022-11-25T00:42:03;7.20;99.90
52181;DHT22;38158;53.338;6.514;2022-11-25T00:44:48;7.20;99.90
52181;DHT22;38158;53.338;6.514;2022-11-25T00:47:16;7.20;99.90
52181;DHT22;38158;53.338;6.514;2022-11-25T00:49:50;7.20;99.90
52181;DHT22;38158;53.338;6.514;2022-11-25T00:52:22;7.20;99.90
52181;DHT22;38158;53.338;6.514;2022-11-25T00:54:49;7.30;99.90
52181;DHT22;38158;53.338;6.514;2022-11-25T00:57:16;7.20;99.90
52181;DHT22;38158;53.338;6.514;2022-11-25T00:59:42;7.30;99.90
52181;DHT22;38158;53.338;6.514;2022-11-25T01:02:10;7.30;99.90
52181;DHT22;38158;53.338;6.514;2022-11-25T01:04:36;7.30;99.90
52181;DHT22;38158;53.338;6.514;2022-11-25T01:07:02;7.30;99.90
52181;DHT22;38158;53.338;6.514;2022-11-25T01:09:28;7.40;99.90
52181;DHT22;38158;53.338;6.514;2022-11-25T01:11:55;7.30;99.90
52181;DHT22;38158;53.338;6.514;2022-11-25T01:14:22;7.60;99.90
52181;DHT22;38158;53.338;6.514;2022-11-25T01:16:48;7.30;99.90
52181;DHT22;38158;53.338;6.514;2022-11-25T01:19:15;7.30;99.90
52181;DHT22;38158;53.338;6.514;2022-11-25T01:21:41;7.40;99.90
52181;DHT22;38158;53.338;6.514;2022-11-25T01:24:08;7.30;99.90
52181;DHT22;38158;53.338;6.514;2022-11-25T01:26:34;7.40;99.90
52181;DHT22;38158;53.338;6.514;2022-11-25T01:29:03;7.30;99.90
52181;DHT22;38158;53.338;6.514;2022-11-25T01:31:31;7.30;99.90
52181;DHT22;38158;53.338;6.514;2022-11-25T01:34:06;7.40;99.90
52181;DHT22;38158;53.338;6.514;2022-11-25T01:36:32;7.40;99.90
52181;DHT22;38158;53.338;6.514;2022-11-25T01:38:59;7.40;99.90
52181;DHT22;38158;53.338;6.514;2022-11-25T01:41:27;7.40;99.90
52181;DHT22;38158;53.338;6.514;2022-11-25T01:54:34;7.30;99.90
52181;DHT22;38158;53.338;6.514;2022-11-25T01:57:05;7.30;99.90
52181;DHT22;38158;53.338;6.514;2022-11-25T01:59:34;7.20;99.90
52181;DHT22;38158;53.338;6.514;2022-11-25T02:02:02;7.20;99.90
52181;DHT22;38158;53.338;6.514;2022-11-25T02:04:32;7.70;99.90
52181;DHT22;38158;53.338;6.514;2022-11-25T02:07:06;7.20;99.90
52181;DHT22;38158;53.338;6.514;2022-11-25T02:09:34;7.20;99.90
52181;DHT22;38158;53.338;6.514;2022-11-25T02:12:02;7.70;99.90
52181;DHT22;38158;53.338;6.514;2022-11-25T02:14:28;7.20;99.90
52181;DHT22;38158;53.338;6.514;2022-11-25T02:16:53;7.30;99.90
52181;DHT22;38158;53.338;6.514;2022-11-25T02:19:23;7.90;99.90
52181;DHT22;38158;53.338;6.514;2022-11-25T02:22:00;7.30;99.90
52181;DHT22;38158;53.338;6.514;2022-11-25T02:24:33;7.50;99.90
52181;DHT22;38158;53.338;6.514;2022-11-25T02:27:04;8.40;99.90
52181;DHT22;38158;53.338;6.514;2022-11-25T02:29:31;7.30;99.90
52181;DHT22;38158;53.338;6.514;2022-11-25T02:31:57;7.30;99.90
52181;DHT22;38158;53.338;6.514;2022-11-25T02:34:23;7.30;99.90
52181;DHT22;38158;53.338;6.514;2022-11-25T02:36:49;7.30;99.90
52181;DHT22;38158;53.338;6.514;2022-11-25T02:39:16;7.30;99.90
52181;DHT22;38158;53.338;6.514;2022-11-25T02:41:54;7.30;99.90
52181;DHT22;38158;53.338;6.514;2022-11-25T02:44:21;7.30;99.90
52181;DHT22;38158;53.338;6.514;2022-11-25T02:46:47;7.30;99.90
52181;DHT22;38158;53.338;6.514;2022-11-25T02:49:13;7.30;99.90
52181;DHT22;38158;53.338;6.514;2022-11-25T02:51:41;7.30;99.90
52181;DHT22;38158;53.338;6.514;2022-11-25T02:54:08;7.30;99.90
52181;DHT22;38158;53.338;6.514;2022-11-25T02:56:35;7.30;99.90
52181;DHT22;38158;53.338;6.514;2022-11-25T02:59:02;7.30;99.90
52181;DHT22;38158;53.338;6.514;2022-11-25T03:01:29;7.30;99.90
52181;DHT22;38158;53.338;6.514;2022-11-25T03:03:56;7.30;99.90
52181;DHT22;38158;53.338;6.514;2022-11-25T03:06:22;7.30;99.90
52181;DHT22;38158;53.338;6.514;2022-11-25T03:08:47;7.30;99.90
52181;DHT22;38158;53.338;6.514;2022-11-25T03:11:14;7.30;99.90
52181;DHT22;38158;53.338;6.514;2022-11-25T03:13:40;7.30;99.90
52181;DHT22;38158;53.338;6.514;2022-11-25T03:16:06;7.40;99.90
52181;DHT22;38158;53.338;6.514;2022-11-25T03:18:32;7.30;99.90
52181;DHT22;38158;53.338;6.514;2022-11-25T03:20:58;7.30;99.90
52181;DHT22;38158;53.338;6.514;2022-11-25T03:23:24;7.40;99.90
52181;DHT22;38158;53.338;6.514;2022-11-25T03:25:50;7.40;99.90
52181;DHT22;38158;53.338;6.514;2022-11-25T03:28:15;7.40;99.90
52181;DHT22;38158;53.338;6.514;2022-11-25T03:30:42;7.40;99.90
52181;DHT22;38158;53.338;6.514;2022-11-25T03:33:08;7.40;99.90
52181;DHT22;38158;53.338;6.514;2022-11-25T03:35:33;7.40;99.90
52181;DHT22;38158;53.338;6.514;2022-11-25T03:37:59;7.40;99.90
52181;DHT22;38158;53.338;6.514;2022-11-25T03:40:25;7.50;99.90
52181;DHT22;38158;53.338;6.514;2022-11-25T03:42:50;7.40;99.90
52181;DHT22;38158;53.338;6.514;2022-11-25T03:45:16;7.50;99.90
52181;DHT22;38158;53.338;6.514;2022-11-25T03:47:42;7.50;99.90
52181;DHT22;38158;53.338;6.514;2022-11-25T03:50:10;7.50;99.90
52181;DHT22;38158;53.338;6.514;2022-11-25T03:52:36;7.90;99.90
52181;DHT22;38158;53.338;6.514;2022-11-25T03:55:02;7.60;99.90
52181;DHT22;38158;53.338;6.514;2022-11-25T03:57:27;7.60;99.90
52181;DHT22;38158;53.338;6.514;2022-11-25T03:59:53;7.60;99.90
52181;DHT22;38158;53.338;6.514;2022-11-25T04:02:19;7.60;99.90
52181;DHT22;38158;53.338;6.514;2022-11-25T04:04:45;7.60;99.90
52181;DHT22;38158;53.338;6.514;2022-11-25T04:07:10;7.60;99.90
52181;DHT22;38158;53.338;6.514;2022-11-25T04:09:36;7.60;99.90
52181;DHT22;38158;53.338;6.514;2022-11-25T04:12:02;7.60;99.90
52181;DHT22;38158;53.338;6.514;2022-11-25T04:14:47;7.60;99.90
52181;DHT22;38158;53.338;6.514;2022-11-25T04:17:12;7.70;99.90
52181;DHT22;38158;53.338;6.514;2022-11-25T04:19:38;7.60;99.90
52181;DHT22;38158;53.338;6.514;2022-11-25T04:22:04;7.70;99.90
52181;DHT22;38158;53.338;6.514;2022-11-25T04:24:29;7.70;99.90
52181;DHT22;38158;53.338;6.514;2022-11-25T04:26:55;7.70;99.90
52181;DHT22;38158;53.338;6.514;2022-11-25T04:29:20;7.70;99.90
52181;DHT22;38158;53.338;6.514;2022-11-25T04:31:46;7.70;99.90
52181;DHT22;38158;53.338;6.514;2022-11-25T04:34:12;7.80;99.90
52181;DHT22;38158;53.338;6.514;2022-11-25T04:36:37;7.80;99.90
52181;DHT22;38158;53.338;6.514;2022-11-25T04:39:03;7.70;99.90
52181;DHT22;38158;53.338;6.514;2022-11-25T04:41:29;7.60;99.90
52181;DHT22;38158;53.338;6.514;2022-11-25T04:43:55;7.60;99.90
52181;DHT22;38158;53.338;6.514;2022-11-25T04:46:25;7.60;99.90
52181;DHT22;38158;53.338;6.514;2022-11-25T04:48:52;7.60;99.90
52181;DHT22;38158;53.338;6.514;2022-11-25T04:51:18;7.60;99.90
52181;DHT22;38158;53.338;6.514;2022-11-25T04:53:44;7.60;99.90
52181;DHT22;38158;53.338;6.514;2022-11-25T04:56:16;7.60;99.90
52181;DHT22;38158;53.338;6.514;2022-11-25T04:58:42;7.80;99.90
52181;DHT22;38158;53.338;6.514;2022-11-25T05:01:37;7.60;99.90
52181;DHT22;38158;53.338;6.514;2022-11-25T05:04:03;7.60;99.90
52181;DHT22;38158;53.338;6.514;2022-11-25T05:06:28;7.60;99.90
52181;DHT22;38158;53.338;6.514;2022-11-25T05:08:54;7.60;99.90
52181;DHT22;38158;53.338;6.514;2022-11-25T05:11:20;7.60;99.90
52181;DHT22;38158;53.338;6.514;2022-11-25T05:13:46;7.60;99.90
52181;DHT22;38158;53.338;6.514;2022-11-25T05:16:11;7.60;99.90
52181;DHT22;38158;53.338;6.514;2022-11-25T05:18:37;7.60;99.90
52181;DHT22;38158;53.338;6.514;2022-11-25T05:21:03;7.60;99.90
52181;DHT22;38158;53.338;6.514;2022-11-25T05:23:30;7.60;99.90
52181;DHT22;38158;53.338;6.514;2022-11-25T05:26:00;7.60;99.90
52181;DHT22;38158;53.338;6.514;2022-11-25T05:28:27;7.60;99.90
52181;DHT22;38158;53.338;6.514;2022-11-25T05:30:53;7.60;99.90
52181;DHT22;38158;53.338;6.514;2022-11-25T05:33:19;7.60;99.90
52181;DHT22;38158;53.338;6.514;2022-11-25T05:35:55;7.60;99.90
52181;DHT22;38158;53.338;6.514;2022-11-25T05:38:21;7.60;99.90
52181;DHT22;38158;53.338;6.514;2022-11-25T05:40:47;7.60;99.90
52181;DHT22;38158;53.338;6.514;2022-11-25T05:43:13;7.60;99.90
52181;DHT22;38158;53.338;6.514;2022-11-25T05:45:38;7.70;99.90
52181;DHT22;38158;53.338;6.514;2022-11-25T05:48:04;7.70;99.90
52181;DHT22;38158;53.338;6.514;2022-11-25T05:50:30;7.70;99.90
52181;DHT22;38158;53.338;6.514;2022-11-25T05:52:56;7.70;99.90
52181;DHT22;38158;53.338;6.514;2022-11-25T05:55:21;7.70;99.90
52181;DHT22;38158;53.338;6.514;2022-11-25T05:57:47;7.70;99.90
52181;DHT22;38158;53.338;6.514;2022-11-25T06:00:13;7.70;99.90
52181;DHT22;38158;53.338;6.514;2022-11-25T06:02:39;7.60;99.90
52181;DHT22;38158;53.338;6.514;2022-11-25T06:05:04;7.70;99.90
52181;DHT22;38158;53.338;6.514;2022-11-25T06:07:30;7.70;99.90
52181;DHT22;38158;53.338;6.514;2022-11-25T06:09:56;7.60;99.90
52181;DHT22;38158;53.338;6.514;2022-11-25T06:12:21;7.70;99.90
52181;DHT22;38158;53.338;6.514;2022-11-25T06:14:47;8.20;99.90
52181;DHT22;38158;53.338;6.514;2022-11-25T06:17:14;7.70;99.90
52181;DHT22;38158;53.338;6.514;2022-11-25T06:19:40;7.70;99.90
52181;DHT22;38158;53.338;6.514;2022-11-25T06:22:06;7.70;99.90
52181;DHT22;38158;53.338;6.514;2022-11-25T06:24:31;7.70;99.90
52181;DHT22;38158;53.338;6.514;2022-11-25T06:26:57;7.70;99.90
52181;DHT22;38158;53.338;6.514;2022-11-25T06:29:23;7.70;99.90
52181;DHT22;38158;53.338;6.514;2022-11-25T06:31:49;7.60;99.90
52181;DHT22;38158;53.338;6.514;2022-11-25T06:34:15;7.60;99.90
52181;DHT22;38158;53.338;6.514;2022-11-25T06:36:41;7.70;99.90
52181;DHT22;38158;53.338;6.514;2022-11-25T06:39:06;7.70;99.90
52181;DHT22;38158;53.338;6.514;2022-11-25T06:41:33;7.70;99.90
52181;DHT22;38158;53.338;6.514;2022-11-25T06:43:58;7.70;99.90
52181;DHT22;38158;53.338;6.514;2022-11-25T06:46:24;7.60;99.90
52181;DHT22;38158;53.338;6.514;2022-11-25T06:48:49;7.90;99.90
52181;DHT22;38158;53.338;6.514;2022-11-25T06:51:15;7.70;99.90
52181;DHT22;38158;53.338;6.514;2022-11-25T06:53:42;7.70;99.90
52181;DHT22;38158;53.338;6.514;2022-11-25T06:58:37;7.70;99.90
52181;DHT22;38158;53.338;6.514;2022-11-25T07:01:06;7.70;99.90
52181;DHT22;38158;53.338;6.514;2022-11-25T07:03:32;7.60;99.90
52181;DHT22;38158;53.338;6.514;2022-11-25T07:05:58;7.70;99.90
52181;DHT22;38158;53.338;6.514;2022-11-25T07:08:25;7.70;99.90
52181;DHT22;38158;53.338;6.514;2022-11-25T07:10:51;7.70;99.90
52181;DHT22;38158;53.338;6.514;2022-11-25T07:13:18;7.80;99.90
52181;DHT22;38158;53.338;6.514;2022-11-25T07:15:44;7.80;99.90
52181;DHT22;38158;53.338;6.514;2022-11-25T07:18:09;7.80;99.90
52181;DHT22;38158;53.338;6.514;2022-11-25T07:20:35;7.80;99.90
52181;DHT22;38158;53.338;6.514;2022-11-25T07:23:01;7.80;99.90
52181;DHT22;38158;53.338;6.514;2022-11-25T07:25:27;7.80;99.90
52181;DHT22;38158;53.338;6.514;2022-11-25T07:27:53;7.80;99.90
52181;DHT22;38158;53.338;6.514;2022-11-25T07:30:18;7.90;99.90
52181;DHT22;38158;53.338;6.514;2022-11-25T07:32:44;7.90;99.90
52181;DHT22;38158;53.338;6.514;2022-11-25T07:35:10;7.80;99.90
52181;DHT22;38158;53.338;6.514;2022-11-25T07:37:35;7.80;99.90
52181;DHT22;38158;53.338;6.514;2022-11-25T07:40:01;7.80;99.90
52181;DHT22;38158;53.338;6.514;2022-11-25T07:42:27;7.80;99.90
52181;DHT22;38158;53.338;6.514;2022-11-25T07:44:52;7.90;99.90
52181;DHT22;38158;53.338;6.514;2022-11-25T07:47:18;7.90;99.90
52181;DHT22;38158;53.338;6.514;2022-11-25T07:49:44;7.90;99.90
52181;DHT22;38158;53.338;6.514;2022-11-25T07:52:09;7.90;99.90
52181;DHT22;38158;53.338;6.514;2022-11-25T07:54:35;7.90;99.90
52181;DHT22;38158;53.338;6.514;2022-11-25T07:57:00;7.90;99.90
52181;DHT22;38158;53.338;6.514;2022-11-25T07:59:26;7.90;99.90
52181;DHT22;38158;53.338;6.514;2022-11-25T08:01:54;7.90;99.90
52181;DHT22;38158;53.338;6.514;2022-11-25T08:04:20;7.90;99.90
52181;DHT22;38158;53.338;6.514;2022-11-25T08:06:47;8.00;99.90
52181;DHT22;38158;53.338;6.514;2022-11-25T08:09:16;8.00;99.90
52181;DHT22;38158;53.338;6.514;2022-11-25T08:11:44;7.90;99.90
52181;DHT22;38158;53.338;6.514;2022-11-25T08:14:10;7.90;99.90
52181;DHT22;38158;53.338;6.514;2022-11-25T08:16:37;8.00;99.90
52181;DHT22;38158;53.338;6.514;2022-11-25T08:19:06;8.40;99.90
52181;DHT22;38158;53.338;6.514;2022-11-25T08:21:32;7.90;99.90
52181;DHT22;38158;53.338;6.514;2022-11-25T08:23:57;8.00;99.90
52181;DHT22;38158;53.338;6.514;2022-11-25T08:26:29;8.00;99.90
52181;DHT22;38158;53.338;6.514;2022-11-25T08:28:59;7.90;99.90
52181;DHT22;38158;53.338;6.514;2022-11-25T08:31:33;7.80;99.90
52181;DHT22;38158;53.338;6.514;2022-11-25T08:34:00;7.80;99.90
52181;DHT22;38158;53.338;6.514;2022-11-25T08:36:27;7.80;99.90
52181;DHT22;38158;53.338;6.514;2022-11-25T08:38:55;7.80;99.90
52181;DHT22;38158;53.338;6.514;2022-11-25T08:41:33;7.80;99.90
52181;DHT22;38158;53.338;6.514;2022-11-25T08:44:01;7.80;99.90
52181;DHT22;38158;53.338;6.514;2022-11-25T08:46:28;7.80;99.90
52181;DHT22;38158;53.338;6.514;2022-11-25T08:48:54;8.50;99.90
52181;DHT22;38158;53.338;6.514;2022-11-25T08:51:28;7.90;99.90
52181;DHT22;38158;53.338;6.514;2022-11-25T08:53:55;7.90;99.90
52181;DHT22;38158;53.338;6.514;2022-11-25T08:56:22;8.30;99.90
52181;DHT22;38158;53.338;6.514;2022-11-25T08:58:48;7.90;99.90
52181;DHT22;38158;53.338;6.514;2022-11-25T09:01:14;7.90;99.90
52181;DHT22;38158;53.338;6.514;2022-11-25T09:03:43;7.90;99.90
52181;DHT22;38158;53.338;6.514;2022-11-25T09:06:10;7.90;99.90
52181;DHT22;38158;53.338;6.514;2022-11-25T09:08:37;8.00;99.90
52181;DHT22;38158;53.338;6.514;2022-11-25T09:11:05;8.00;99.90
52181;DHT22;38158;53.338;6.514;2022-11-25T09:13:31;8.00;99.90
52181;DHT22;38158;53.338;6.514;2022-11-25T09:15:59;8.10;99.90
52181;DHT22;38158;53.338;6.514;2022-11-25T09:18:26;8.10;99.90
52181;DHT22;38158;53.338;6.514;2022-11-25T09:20:55;8.20;99.90
52181;DHT22;38158;53.338;6.514;2022-11-25T09:23:21;8.20;99.90
52181;DHT22;38158;53.338;6.514;2022-11-25T09:25:54;8.20;99.90
52181;DHT22;38158;53.338;6.514;2022-11-25T09:28:21;8.30;99.90
52181;DHT22;38158;53.338;6.514;2022-11-25T09:30:47;8.30;99.90
52181;DHT22;38158;53.338;6.514;2022-11-25T09:33:13;8.40;99.90
52181;DHT22;38158;53.338;6.514;2022-11-25T09:35:39;8.50;99.90
52181;DHT22;38158;53.338;6.514;2022-11-25T09:38:05;8.50;99.90
52181;DHT22;38158;53.338;6.514;2022-11-25T09:54:56;8.70;99.90
52181;DHT22;38158;53.338;6.514;2022-11-25T09:57:28;8.70;99.90
52181;DHT22;38158;53.338;6.514;2022-11-25T10:00:08;8.70;99.90
52181;DHT22;38158;53.338;6.514;2022-11-25T10:02:42;9.70;99.90
52181;DHT22;38158;53.338;6.514;2022-11-25T10:05:24;8.80;99.90
52181;DHT22;38158;53.338;6.514;2022-11-25T10:08:15;8.80;99.90
52181;DHT22;38158;53.338;6.514;2022-11-25T10:10:47;8.90;99.90
52181;DHT22;38158;53.338;6.514;2022-11-25T10:16:04;9.10;99.90
52181;DHT22;38158;53.338;6.514;2022-11-25T10:18:44;9.20;99.90
52181;DHT22;38158;53.338;6.514;2022-11-25T10:21:12;9.70;99.90
52181;DHT22;38158;53.338;6.514;2022-11-25T10:23:38;9.30;99.90
52181;DHT22;38158;53.338;6.514;2022-11-25T10:26:16;9.40;99.90
52181;DHT22;38158;53.338;6.514;2022-11-25T10:28:54;9.50;99.90
52181;DHT22;38158;53.338;6.514;2022-11-25T10:31:31;9.50;99.90
52181;DHT22;38158;53.338;6.514;2022-11-25T10:34:00;9.50;99.90
52181;DHT22;38158;53.338;6.514;2022-11-25T10:36:30;9.50;99.90
52181;DHT22;38158;53.338;6.514;2022-11-25T10:41:31;9.50;99.90
52181;DHT22;38158;53.338;6.514;2022-11-25T10:43:57;9.50;99.90
52181;DHT22;38158;53.338;6.514;2022-11-25T10:49:27;9.60;99.90
52181;DHT22;38158;53.338;6.514;2022-11-25T10:51:54;9.60;99.90
52181;DHT22;38158;53.338;6.514;2022-11-25T10:54:26;10.60;99.90
52181;DHT22;38158;53.338;6.514;2022-11-25T10:56:58;9.70;99.90
52181;DHT22;38158;53.338;6.514;2022-11-25T10:59:40;9.70;99.90
52181;DHT22;38158;53.338;6.514;2022-11-25T11:02:26;9.70;99.90
52181;DHT22;38158;53.338;6.514;2022-11-25T11:07:29;9.80;99.90
52181;DHT22;38158;53.338;6.514;2022-11-25T11:12:38;9.80;99.90
52181;DHT22;38158;53.338;6.514;2022-11-25T11:15:28;9.90;99.90
52181;DHT22;38158;53.338;6.514;2022-11-25T11:17:56;9.90;99.90
52181;DHT22;38158;53.338;6.514;2022-11-25T11:20:29;10.00;99.90
52181;DHT22;38158;53.338;6.514;2022-11-25T11:25:26;10.00;99.90
52181;DHT22;38158;53.338;6.514;2022-11-25T11:27:52;9.90;99.90
52181;DHT22;38158;53.338;6.514;2022-11-25T11:30:20;9.90;99.90
52181;DHT22;38158;53.338;6.514;2022-11-25T11:33:04;9.90;99.90
52181;DHT22;38158;53.338;6.514;2022-11-25T11:50:26;10.10;99.90
52181;DHT22;38158;53.338;6.514;2022-11-25T11:58:37;10.30;99.90
52181;DHT22;38158;53.338;6.514;2022-11-25T12:03:56;10.40;99.90
52181;DHT22;38158;53.338;6.514;2022-11-25T12:06:25;10.40;99.90
52181;DHT22;38158;53.338;6.514;2022-11-25T12:09:04;10.50;99.90
52181;DHT22;38158;53.338;6.514;2022-11-25T12:11:38;10.60;99.90
52181;DHT22;38158;53.338;6.514;2022-11-25T12:14:18;10.60;99.90
52181;DHT22;38158;53.338;6.514;2022-11-25T12:16:57;10.60;99.90
52181;DHT22;38158;53.338;6.514;2022-11-25T12:19:40;10.70;99.90
52181;DHT22;38158;53.338;6.514;2022-11-25T12:22:28;10.70;99.90
52181;DHT22;38158;53.338;6.514;2022-11-25T12:27:30;10.70;99.90
52181;DHT22;38158;53.338;6.514;2022-11-25T12:30:03;10.20;99.90
52181;DHT22;38158;53.338;6.514;2022-11-25T12:32:50;10.70;99.90
52181;DHT22;38158;53.338;6.514;2022-11-25T12:35:26;10.70;99.90
52181;DHT22;38158;53.338;6.514;2022-11-25T12:38:02;10.70;99.90
52181;DHT22;38158;53.338;6.514;2022-11-25T12:43:27;10.80;99.90
52181;DHT22;38158;53.338;6.514;2022-11-25T12:48:43;10.70;99.90
52181;DHT22;38158;53.338;6.514;2022-11-25T13:15:40;11.20;99.90
52181;DHT22;38158;53.338;6.514;2022-11-25T13:18:27;11.10;99.90
52181;DHT22;38158;53.338;6.514;2022-11-25T13:20:55;11.10;99.90
52181;DHT22;38158;53.338;6.514;2022-11-25T13:26:35;11.00;99.90
52181;DHT22;38158;53.338;6.514;2022-11-25T13:36:47;10.70;99.90
52181;DHT22;38158;53.338;6.514;2022-11-25T13:42:21;10.60;99.90
52181;DHT22;38158;53.338;6.514;2022-11-25T13:44:54;10.60;99.90
52181;DHT22;38158;53.338;6.514;2022-11-25T13:47:37;10.70;99.90
52181;DHT22;38158;53.338;6.514;2022-11-25T13:52:41;10.80;99.90
52181;DHT22;38158;53.338;6.514;2022-11-25T13:57:47;10.80;99.90
52181;DHT22;38158;53.338;6.514;2022-11-25T14:02:41;10.80;99.90
52181;DHT22;38158;53.338;6.514;2022-11-25T14:25:10;10.50;99.90
52181;DHT22;38158;53.338;6.514;2022-11-25T14:27:38;10.40;99.90
52181;DHT22;38158;53.338;6.514;2022-11-25T14:30:09;10.30;99.90
52181;DHT22;38158;53.338;6.514;2022-11-25T14:32:55;10.30;99.90
52181;DHT22;38158;53.338;6.514;2022-11-25T14:37:55;10.10;99.90
52181;DHT22;38158;53.338;6.514;2022-11-25T14:41:12;10.10;99.90
52181;DHT22;38158;53.338;6.514;2022-11-25T14:43:19;10.10;99.90
52181;DHT22;38158;53.338;6.514;2022-11-25T14:45:45;10.00;99.90
52181;DHT22;38158;53.338;6.514;2022-11-25T14:48:15;10.00;99.90
52181;DHT22;38158;53.338;6.514;2022-11-25T14:51:02;9.90;99.90
52181;DHT22;38158;53.338;6.514;2022-11-25T14:53:29;9.80;99.90
52181;DHT22;38158;53.338;6.514;2022-11-25T14:55:56;9.70;99.90
52181;DHT22;38158;53.338;6.514;2022-11-25T14:58:25;9.70;99.90
52181;DHT22;38158;53.338;6.514;2022-11-25T15:03:23;9.60;99.90
52181;DHT22;38158;53.338;6.514;2022-11-25T15:06:02;9.50;99.90
52181;DHT22;38158;53.338;6.514;2022-11-25T15:08:37;9.40;99.90
52181;DHT22;38158;53.338;6.514;2022-11-25T15:11:15;9.40;99.90
52181;DHT22;38158;53.338;6.514;2022-11-25T15:13:44;9.30;99.90
52181;DHT22;38158;53.338;6.514;2022-11-25T15:16:19;9.30;99.90
52181;DHT22;38158;53.338;6.514;2022-11-25T15:19:05;9.30;99.90
52181;DHT22;38158;53.338;6.514;2022-11-25T15:21:36;9.20;99.90
52181;DHT22;38158;53.338;6.514;2022-11-25T15:24:03;9.20;99.90
52181;DHT22;38158;53.338;6.514;2022-11-25T15:26:32;9.10;99.90
52181;DHT22;38158;53.338;6.514;2022-11-25T15:29:09;9.00;99.90
52181;DHT22;38158;53.338;6.514;2022-11-25T15:31:36;9.00;99.90
52181;DHT22;38158;53.338;6.514;2022-11-25T15:34:10;8.90;99.90
52181;DHT22;38158;53.338;6.514;2022-11-25T15:36:36;8.90;99.90
52181;DHT22;38158;53.338;6.514;2022-11-25T15:39:24;8.80;99.90
52181;DHT22;38158;53.338;6.514;2022-11-25T15:44:32;8.60;99.90
52181;DHT22;38158;53.338;6.514;2022-11-25T15:49:47;8.50;99.90
52181;DHT22;38158;53.338;6.514;2022-11-25T15:52:17;8.50;99.90
52181;DHT22;38158;53.338;6.514;2022-11-25T15:54:45;8.40;99.90
52181;DHT22;38158;53.338;6.514;2022-11-25T15:57:27;8.40;99.90
52181;DHT22;38158;53.338;6.514;2022-11-25T16:02:52;8.30;99.90
52181;DHT22;38158;53.338;6.514;2022-11-25T16:05:24;8.20;99.90
52181;DHT22;38158;53.338;6.514;2022-11-25T16:16:07;8.00;99.90
52181;DHT22;38158;53.338;6.514;2022-11-25T16:21:49;7.90;99.90
52181;DHT22;38158;53.338;6.514;2022-11-25T16:26:55;7.90;99.90
52181;DHT22;38158;53.338;6.514;2022-11-25T16:29:37;7.90;99.90
52181;DHT22;38158;53.338;6.514;2022-11-25T16:32:13;7.90;99.90
52181;DHT22;38158;53.338;6.514;2022-11-25T16:34:39;7.90;99.90
52181;DHT22;38158;53.338;6.514;2022-11-25T16:37:05;7.80;99.90
52181;DHT22;38158;53.338;6.514;2022-11-25T16:39:31;7.80;99.90
52181;DHT22;38158;53.338;6.514;2022-11-25T16:41:58;7.70;99.90
52181;DHT22;38158;53.338;6.514;2022-11-25T16:44:27;7.70;99.90
52181;DHT22;38158;53.338;6.514;2022-11-25T16:46:53;7.70;99.90
52181;DHT22;38158;53.338;6.514;2022-11-25T16:49:20;7.90;99.90
52181;DHT22;38158;53.338;6.514;2022-11-25T16:51:46;7.70;99.90
52181;DHT22;38158;53.338;6.514;2022-11-25T16:54:11;7.60;99.90
52181;DHT22;38158;53.338;6.514;2022-11-25T16:56:41;8.50;99.90
52181;DHT22;38158;53.338;6.514;2022-11-25T16:59:17;7.60;99.90
52181;DHT22;38158;53.338;6.514;2022-11-25T17:01:44;7.50;99.90
52181;DHT22;38158;53.338;6.514;2022-11-25T17:04:11;7.60;99.90
52181;DHT22;38158;53.338;6.514;2022-11-25T17:06:38;7.50;99.90
52181;DHT22;38158;53.338;6.514;2022-11-25T17:09:04;7.50;99.90
52181;DHT22;38158;53.338;6.514;2022-11-25T17:11:36;7.50;99.90
52181;DHT22;38158;53.338;6.514;2022-11-25T17:14:05;7.40;99.90
52181;DHT22;38158;53.338;6.514;2022-11-25T17:16:31;7.40;99.90
52181;DHT22;38158;53.338;6.514;2022-11-25T17:18:58;7.30;99.90
52181;DHT22;38158;53.338;6.514;2022-11-25T17:21:25;7.30;99.90
52181;DHT22;38158;53.338;6.514;2022-11-25T17:23:54;7.30;99.90
52181;DHT22;38158;53.338;6.514;2022-11-25T17:26:26;7.30;99.90
52181;DHT22;38158;53.338;6.514;2022-11-25T17:28:59;7.20;99.90
52181;DHT22;38158;53.338;6.514;2022-11-25T17:31:28;7.20;99.90
52181;DHT22;38158;53.338;6.514;2022-11-25T17:33:56;7.20;99.90
52181;DHT22;38158;53.338;6.514;2022-11-25T17:36:23;7.20;99.90
52181;DHT22;38158;53.338;6.514;2022-11-25T17:38:48;7.10;99.90
52181;DHT22;38158;53.338;6.514;2022-11-25T17:41:17;7.10;99.90
52181;DHT22;38158;53.338;6.514;2022-11-25T17:43:44;7.10;99.90
52181;DHT22;38158;53.338;6.514;2022-11-25T17:46:13;7.10;99.90
52181;DHT22;38158;53.338;6.514;2022-11-25T17:48:39;7.10;99.90
52181;DHT22;38158;53.338;6.514;2022-11-25T17:51:15;7.00;99.90
52181;DHT22;38158;53.338;6.514;2022-11-25T17:53:41;7.20;99.90
52181;DHT22;38158;53.338;6.514;2022-11-25T17:56:24;7.10;99.90
52181;DHT22;38158;53.338;6.514;2022-11-25T17:58:51;7.00;99.90
52181;DHT22;38158;53.338;6.514;2022-11-25T18:01:17;7.00;99.90
52181;DHT22;38158;53.338;6.514;2022-11-25T18:03:43;7.00;99.90
52181;DHT22;38158;53.338;6.514;2022-11-25T18:06:09;7.00;99.90
52181;DHT22;38158;53.338;6.514;2022-11-25T18:08:34;7.00;99.90
52181;DHT22;38158;53.338;6.514;2022-11-25T18:11:02;7.00;99.90
52181;DHT22;38158;53.338;6.514;2022-11-25T18:13:33;7.00;99.90
52181;DHT22;38158;53.338;6.514;2022-11-25T18:16:01;7.00;99.90
52181;DHT22;38158;53.338;6.514;2022-11-25T18:18:26;6.90;99.90
52181;DHT22;38158;53.338;6.514;2022-11-25T18:20:52;6.90;99.90
52181;DHT22;38158;53.338;6.514;2022-11-25T18:23:18;6.90;99.90
52181;DHT22;38158;53.338;6.514;2022-11-25T18:25:44;6.90;99.90
52181;DHT22;38158;53.338;6.514;2022-11-25T18:28:16;6.80;99.90
52181;DHT22;38158;53.338;6.514;2022-11-25T18:30:43;6.80;99.90
52181;DHT22;38158;53.338;6.514;2022-11-25T18:33:13;6.80;99.90
52181;DHT22;38158;53.338;6.514;2022-11-25T18:35:39;6.70;99.90
52181;DHT22;38158;53.338;6.514;2022-11-25T18:38:05;6.70;99.90
52181;DHT22;38158;53.338;6.514;2022-11-25T18:40:32;6.70;99.90
52181;DHT22;38158;53.338;6.514;2022-11-25T18:42:59;6.90;99.90